createdAt,value
2023-04-04T00:01:12.801Z,1.20
2023-04-04T00:03:41.368Z,1.00
2023-04-04T00:06:11.380Z,1.23
2023-04-04T00:08:40.078Z,1.30
2023-04-04T00:11:08.496Z,1.10
2023-04-04T00:13:37.491Z,1.20
2023-04-04T00:16:06.858Z,0.90
2023-04-04T00:18:35.338Z,1.00
2023-04-04T00:21:03.743Z,1.10
2023-04-04T00:23:33.487Z,1.07
2023-04-04T00:26:01.805Z,1.00
2023-04-04T00:28:30.151Z,1.23
2023-04-04T00:30:58.459Z,0.80
2023-04-04T00:33:27.494Z,0.93
2023-04-04T00:35:56.116Z,0.70
2023-04-04T00:38:24.468Z,0.83
2023-04-04T00:40:54.294Z,0.87
2023-04-04T00:43:23.067Z,0.70
2023-04-04T00:45:53.090Z,0.80
2023-04-04T00:48:24.952Z,0.83
2023-04-04T00:50:53.706Z,1.20
2023-04-04T00:53:22.260Z,1.00
2023-04-04T00:55:50.707Z,0.90
2023-04-04T00:58:20.521Z,1.17
2023-04-04T01:00:48.972Z,1.08
2023-04-04T01:03:17.729Z,0.80
2023-04-04T01:05:46.057Z,0.73
2023-04-04T01:08:14.697Z,1.03
2023-04-04T01:10:43.831Z,0.70
2023-04-04T01:13:13.019Z,1.03
2023-04-04T01:15:42.845Z,0.80
2023-04-04T01:18:15.803Z,0.98
2023-04-04T01:20:53.355Z,0.87
2023-04-04T01:23:25.596Z,0.77
2023-04-04T01:26:04.003Z,0.97
2023-04-04T01:28:32.437Z,1.40
2023-04-04T01:31:03.304Z,1.13
2023-04-04T01:33:37.629Z,1.47
2023-04-04T01:36:12.898Z,1.10
2023-04-04T01:38:49.603Z,1.17
2023-04-04T01:41:20.736Z,1.13
2023-04-04T01:43:49.445Z,1.90
2023-04-04T01:46:18.672Z,1.30
2023-04-04T01:48:47.852Z,1.50
2023-04-04T01:51:17.259Z,1.43
2023-04-04T01:53:46.813Z,1.40
2023-04-04T01:56:15.130Z,1.47
2023-04-04T01:58:44.895Z,1.57
2023-04-04T02:01:13.350Z,1.30
2023-04-04T02:03:41.775Z,2.50
2023-04-04T02:06:10.277Z,1.40
2023-04-04T02:08:39.548Z,1.90
2023-04-04T02:11:07.988Z,1.27
2023-04-04T02:13:38.004Z,1.13
2023-04-04T02:16:08.007Z,1.23
2023-04-04T02:18:36.368Z,1.33
2023-04-04T02:21:04.919Z,1.43
2023-04-04T02:23:33.436Z,1.60
2023-04-04T02:26:01.817Z,1.70
2023-04-04T02:28:31.432Z,1.33
2023-04-04T02:31:02.979Z,1.03
2023-04-04T02:33:33.006Z,1.37
2023-04-04T02:36:01.645Z,1.37
2023-04-04T02:38:30.112Z,1.63
2023-04-04T02:40:58.473Z,1.50
2023-04-04T02:43:26.793Z,1.40
2023-04-04T02:45:55.221Z,1.63
2023-04-04T02:48:24.341Z,2.10
2023-04-04T02:50:54.131Z,1.23
2023-04-04T02:53:22.632Z,0.90
2023-04-04T02:55:50.972Z,1.20
2023-04-04T02:58:19.354Z,1.40
2023-04-04T03:00:48.359Z,1.30
2023-04-04T03:03:17.033Z,1.23
2023-04-04T03:05:46.338Z,1.13
2023-04-04T03:08:16.244Z,1.50
2023-04-04T03:10:45.976Z,1.00
2023-04-04T03:13:14.284Z,1.23
2023-04-04T03:15:43.943Z,1.40
2023-04-04T03:18:16.059Z,0.80
2023-04-04T03:20:44.735Z,1.47
2023-04-04T03:23:13.072Z,1.20
2023-04-04T03:25:42.799Z,1.10
2023-04-04T03:28:11.668Z,1.67
2023-04-04T03:30:40.425Z,1.50
2023-04-04T03:33:10.176Z,1.50
2023-04-04T03:35:41.928Z,1.60
2023-04-04T03:38:11.087Z,1.43
2023-04-04T03:40:39.965Z,1.53
2023-04-04T03:43:10.328Z,1.73
2023-04-04T03:45:39.285Z,1.70
2023-04-04T03:48:08.088Z,1.60
2023-04-04T03:50:38.177Z,1.93
2023-04-04T03:53:07.279Z,1.90
2023-04-04T03:55:35.884Z,1.33
2023-04-04T03:58:04.195Z,1.53
2023-04-04T04:00:33.938Z,1.03
2023-04-04T04:03:02.412Z,1.77
2023-04-04T04:05:30.814Z,1.57
2023-04-04T04:07:59.091Z,1.37
2023-04-04T04:10:27.516Z,1.80
2023-04-04T04:12:55.951Z,1.77
2023-04-04T04:15:24.390Z,2.00
2023-04-04T04:17:54.256Z,1.73
2023-04-04T04:20:22.592Z,1.70
2023-04-04T04:22:53.347Z,1.43
2023-04-04T04:25:22.481Z,1.43
2023-04-04T04:27:51.191Z,1.80
2023-04-04T04:30:19.553Z,1.27
2023-04-04T04:32:50.187Z,1.57
2023-04-04T04:35:20.022Z,1.93
2023-04-04T04:37:48.577Z,1.90
2023-04-04T04:40:17.231Z,1.50
2023-04-04T04:42:46.718Z,1.87
2023-04-04T04:45:15.400Z,1.80
2023-04-04T04:47:44.073Z,2.17
2023-04-04T04:50:12.956Z,1.70
2023-04-04T04:52:42.741Z,1.40
2023-04-04T04:55:12.020Z,1.80
2023-04-04T04:57:40.462Z,2.30
2023-04-04T05:00:10.611Z,2.03
2023-04-04T05:02:39.001Z,2.33
2023-04-04T05:05:08.132Z,2.00
2023-04-04T05:07:36.550Z,2.47
2023-04-04T05:10:07.045Z,2.40
2023-04-04T05:12:35.421Z,2.20
2023-04-04T05:15:03.827Z,2.63
2023-04-04T05:17:32.625Z,2.97
2023-04-04T05:20:01.149Z,2.40
2023-04-04T05:22:29.703Z,2.50
2023-04-04T05:24:58.227Z,2.27
2023-04-04T05:27:28.038Z,2.83
2023-04-04T05:29:56.693Z,3.23
2023-04-04T05:32:25.872Z,2.97
2023-04-04T05:34:54.263Z,3.30
2023-04-04T05:37:22.761Z,3.60
2023-04-04T05:39:51.228Z,3.00
2023-04-04T05:42:19.472Z,3.07
2023-04-04T05:44:49.184Z,3.83
2023-04-04T05:47:17.446Z,3.20
2023-04-04T05:49:45.801Z,2.43
2023-04-04T05:52:14.065Z,3.27
2023-04-04T05:54:42.324Z,3.00
2023-04-04T05:57:10.813Z,3.03
2023-04-04T05:59:39.236Z,2.90
2023-04-04T06:02:08.988Z,2.67
2023-04-04T06:04:37.305Z,2.73
2023-04-04T06:07:05.838Z,2.53
2023-04-04T06:09:34.245Z,3.10
2023-04-04T06:12:04.486Z,3.47
2023-04-04T06:14:32.818Z,2.50
2023-04-04T06:17:01.203Z,2.63
2023-04-04T06:19:30.915Z,2.07
2023-04-04T06:21:59.258Z,2.27
2023-04-04T06:24:27.640Z,2.50
2023-04-04T06:26:56.156Z,2.73
2023-04-04T06:29:24.571Z,2.20
2023-04-04T06:31:53.026Z,2.30
2023-04-04T06:34:22.940Z,2.40
2023-04-04T06:36:52.729Z,2.40
2023-04-04T06:39:21.189Z,2.77
2023-04-04T06:41:49.592Z,2.05
2023-04-04T06:44:17.906Z,2.50
2023-04-04T06:46:47.016Z,1.70
2023-04-04T06:49:15.632Z,2.77
2023-04-04T06:51:44.541Z,2.35
2023-04-04T06:54:14.285Z,2.03
2023-04-04T06:56:42.586Z,2.17
2023-04-04T06:59:12.167Z,2.13
2023-04-04T07:01:40.701Z,2.40
2023-04-04T07:04:09.100Z,2.20
2023-04-04T07:06:37.675Z,1.27
2023-04-04T07:09:08.964Z,2.05
2023-04-04T07:11:42.659Z,2.22
2023-04-04T07:14:10.960Z,2.35
2023-04-04T07:16:39.250Z,1.33
2023-04-04T07:19:07.902Z,1.67
2023-04-04T07:21:36.232Z,1.50
2023-04-04T07:24:04.637Z,1.50
2023-04-04T07:26:34.068Z,1.42
2023-04-04T07:29:03.984Z,1.80
2023-04-04T07:31:32.712Z,1.20
2023-04-04T07:34:01.524Z,0.95
2023-04-04T07:36:29.945Z,1.27
2023-04-04T07:38:58.537Z,1.58
2023-04-04T07:41:27.217Z,1.33
2023-04-04T07:43:55.492Z,1.38
2023-04-04T07:46:25.264Z,0.95
2023-04-04T07:48:53.619Z,0.85
2023-04-04T07:51:29.362Z,1.20
2023-04-04T07:53:57.837Z,1.20
2023-04-04T07:56:26.351Z,1.13
2023-04-04T07:58:54.848Z,1.55
2023-04-04T08:01:24.650Z,1.25
2023-04-04T08:03:53.711Z,1.17
2023-04-04T08:06:22.222Z,1.10
2023-04-04T08:08:50.832Z,1.25
2023-04-04T08:11:19.131Z,1.00
2023-04-04T08:13:47.824Z,0.93
2023-04-04T08:16:16.193Z,0.95
2023-04-04T08:18:45.902Z,1.13
2023-04-04T08:21:14.350Z,0.88
2023-04-04T08:23:42.946Z,0.82
2023-04-04T08:26:11.880Z,1.00
2023-04-04T08:28:40.503Z,1.25
2023-04-04T08:31:10.420Z,0.80
2023-04-04T08:33:47.452Z,1.30
2023-04-04T08:36:17.897Z,0.70
2023-04-04T08:38:46.233Z,0.60
2023-04-04T08:41:15.746Z,0.77
2023-04-04T08:43:47.094Z,0.60
2023-04-04T08:46:16.651Z,0.57
2023-04-04T08:48:47.396Z,0.60
2023-04-04T08:51:17.672Z,0.70
2023-04-04T08:53:46.176Z,0.65
2023-04-04T08:56:15.418Z,0.80
2023-04-04T08:58:43.919Z,0.57
2023-04-04T09:01:12.496Z,0.60
2023-04-04T09:03:41.429Z,0.40
2023-04-04T09:06:10.478Z,0.40
2023-04-04T09:08:41.829Z,0.50
2023-04-04T09:11:10.990Z,0.40
2023-04-04T09:13:41.415Z,0.50
2023-04-04T09:16:09.874Z,0.50
2023-04-04T09:18:38.660Z,0.68
2023-04-04T09:21:10.734Z,0.70
2023-04-04T09:23:40.980Z,0.60
2023-04-04T09:26:09.334Z,0.93
2023-04-04T09:28:38.024Z,0.63
2023-04-04T09:31:10.259Z,0.52
2023-04-04T09:33:40.548Z,0.50
2023-04-04T09:36:11.161Z,0.57
2023-04-04T09:38:43.258Z,0.60
2023-04-04T09:41:12.124Z,0.50
2023-04-04T09:43:41.466Z,0.63
2023-04-04T09:46:10.137Z,0.70
2023-04-04T09:48:38.808Z,0.88
2023-04-04T09:51:08.272Z,0.60
2023-04-04T09:53:38.102Z,0.60
2023-04-04T09:56:08.837Z,0.60
2023-04-04T09:58:40.528Z,0.88
2023-04-04T10:01:15.468Z,0.50
2023-04-04T10:03:44.198Z,0.80
2023-04-04T10:06:12.995Z,1.20
2023-04-04T10:08:43.862Z,0.80
2023-04-04T10:11:14.260Z,0.80
2023-04-04T10:13:44.736Z,1.00
2023-04-04T10:16:13.545Z,0.93
2023-04-04T10:18:42.513Z,0.95
2023-04-04T10:23:44.070Z,0.90
2023-04-04T10:26:14.449Z,0.82
2023-04-04T10:28:44.277Z,0.90
2023-04-04T10:31:24.298Z,0.63
2023-04-04T10:33:56.422Z,0.80
2023-04-04T10:36:25.581Z,1.08
2023-04-04T10:39:01.196Z,1.20
2023-04-04T10:41:33.985Z,1.00
2023-04-04T10:44:06.773Z,0.90
2023-04-04T10:46:36.120Z,0.98
2023-04-04T10:49:04.853Z,0.88
2023-04-04T10:51:39.427Z,1.00
2023-04-04T10:54:14.400Z,0.73
2023-04-04T10:56:44.591Z,1.00
2023-04-04T10:59:17.222Z,0.75
2023-04-04T11:01:50.048Z,1.30
2023-04-04T11:04:21.100Z,0.90
2023-04-04T11:07:08.858Z,1.17
2023-04-04T11:09:57.029Z,1.00
2023-04-04T11:12:33.221Z,0.70
2023-04-04T11:15:11.629Z,1.20
2023-04-04T11:17:52.801Z,0.77
2023-04-04T11:20:22.555Z,0.90
2023-04-04T11:22:51.725Z,0.80
2023-04-04T11:25:44.016Z,0.82
2023-04-04T11:28:17.223Z,1.08
2023-04-04T11:30:48.924Z,1.20
2023-04-04T11:33:28.708Z,1.63
2023-04-04T11:36:00.789Z,0.95
2023-04-04T11:46:19.732Z,0.88
2023-04-04T11:48:49.546Z,1.10
2023-04-04T11:51:18.196Z,0.88
2023-04-04T11:53:48.986Z,0.98
2023-04-04T11:56:17.606Z,1.15
2023-04-04T11:58:56.058Z,1.10
2023-04-04T12:01:31.916Z,2.17
2023-04-04T12:04:01.386Z,0.80
2023-04-04T12:06:33.198Z,1.48
2023-04-04T12:09:02.288Z,1.58
2023-04-04T12:11:32.188Z,1.08
2023-04-04T12:14:01.051Z,1.35
2023-04-04T12:16:31.129Z,0.95
2023-04-04T12:19:03.214Z,0.88
2023-04-04T12:21:33.773Z,0.95
2023-04-04T12:24:02.661Z,1.13
2023-04-04T12:26:33.702Z,1.20
2023-04-04T12:29:02.423Z,0.95
2023-04-04T12:31:32.425Z,1.45
2023-04-04T12:34:01.278Z,1.10
2023-04-04T12:36:31.574Z,1.10
2023-04-04T12:39:02.362Z,1.10
2023-04-04T12:41:30.783Z,1.08
2023-04-04T12:44:03.708Z,1.15
2023-04-04T12:46:39.963Z,1.08
2023-04-04T12:49:11.215Z,1.50
2023-04-04T12:51:39.968Z,1.27
2023-04-04T12:54:09.212Z,1.17
2023-04-04T12:56:38.398Z,0.90
2023-04-04T12:59:11.037Z,1.20
2023-04-04T13:01:42.140Z,1.17
2023-04-04T13:04:10.707Z,1.10
2023-04-04T13:06:39.609Z,1.23
2023-04-04T13:09:08.847Z,1.27
2023-04-04T13:11:59.933Z,1.10
2023-04-04T13:14:29.072Z,1.10
2023-04-04T13:17:08.433Z,1.10
2023-04-04T13:19:36.996Z,1.42
2023-04-04T13:22:09.240Z,0.90
2023-04-04T13:24:39.785Z,1.27
2023-04-04T13:27:09.368Z,1.20
2023-04-04T13:29:37.767Z,1.20
2023-04-04T13:32:08.204Z,1.33
2023-04-04T13:34:37.175Z,1.20
2023-04-04T13:37:05.855Z,1.00
2023-04-04T13:39:34.569Z,1.23
2023-04-04T13:42:03.888Z,1.05
2023-04-04T13:44:32.569Z,1.48
2023-04-04T13:47:01.258Z,1.20
2023-04-04T13:49:31.038Z,1.40
2023-04-04T13:51:59.380Z,1.25
2023-04-04T13:54:27.698Z,1.35
2023-04-04T13:56:57.374Z,1.42
2023-04-04T13:59:25.894Z,1.02
2023-04-04T14:01:54.462Z,1.10
2023-04-04T14:04:24.337Z,1.25
2023-04-04T14:06:54.350Z,1.20
2023-04-04T14:09:23.109Z,0.98
2023-04-04T14:11:51.558Z,1.15
2023-04-04T14:14:19.865Z,1.45
2023-04-04T14:16:48.547Z,1.42
2023-04-04T14:19:17.208Z,1.42
2023-04-04T14:21:45.581Z,1.45
2023-04-04T14:24:15.420Z,0.93
2023-04-04T14:26:43.683Z,1.20
2023-04-04T14:29:12.083Z,1.17
2023-04-04T14:31:40.764Z,1.63
2023-04-04T14:34:09.234Z,1.92
2023-04-04T14:36:37.756Z,1.75
2023-04-04T14:39:06.093Z,1.30
2023-04-04T14:41:35.924Z,1.50
2023-04-04T14:44:04.223Z,1.42
2023-04-04T14:46:34.079Z,1.27
2023-04-04T14:49:05.806Z,1.20
2023-04-04T14:51:34.743Z,1.45
2023-04-04T14:54:03.578Z,1.50
2023-04-04T14:56:32.137Z,1.70
2023-04-04T14:59:03.901Z,1.60
2023-04-04T15:01:32.478Z,1.55
2023-04-04T15:04:00.864Z,2.17
2023-04-04T15:06:34.608Z,1.50
2023-04-04T15:09:04.803Z,2.60
2023-04-04T15:11:33.577Z,2.25
2023-04-04T15:14:07.102Z,1.60
2023-04-04T15:16:36.070Z,2.08
2023-04-04T15:19:04.447Z,1.90
2023-04-04T15:21:32.847Z,1.75
2023-04-04T15:24:01.194Z,1.70
2023-04-04T15:26:29.525Z,1.60
2023-04-04T15:28:57.864Z,1.60
2023-04-04T15:31:28.201Z,1.48
2023-04-04T15:33:59.242Z,1.75
2023-04-04T15:36:29.042Z,1.75
2023-04-04T15:38:57.487Z,1.80
2023-04-04T15:41:25.977Z,1.73
2023-04-04T15:43:54.326Z,1.58
2023-04-04T15:46:22.805Z,2.13
2023-04-04T15:48:53.069Z,1.45
2023-04-04T15:51:22.273Z,1.60
2023-04-04T15:53:51.140Z,1.83
2023-04-04T15:56:19.943Z,2.03
2023-04-04T15:58:48.346Z,2.22
2023-04-04T16:01:16.829Z,2.15
2023-04-04T16:03:45.354Z,1.60
2023-04-04T16:06:15.373Z,1.88
2023-04-04T16:08:44.534Z,1.20
2023-04-04T16:11:13.589Z,1.98
2023-04-04T16:13:43.120Z,1.60
2023-04-04T16:16:11.778Z,1.42
2023-04-04T16:18:40.872Z,1.17
2023-04-04T16:21:09.437Z,1.60
2023-04-04T16:23:39.883Z,1.63
2023-04-04T16:26:09.509Z,1.48
2023-04-04T16:28:38.767Z,1.58
2023-04-04T16:31:07.872Z,1.52
2023-04-04T16:33:36.433Z,1.77
2023-04-04T16:36:05.056Z,1.55
2023-04-04T16:38:33.545Z,0.95
2023-04-04T16:41:03.551Z,1.70
2023-04-04T16:43:32.154Z,2.15
2023-04-04T16:46:00.595Z,1.67
2023-04-04T16:48:28.877Z,2.00
2023-04-04T16:50:57.764Z,2.22
2023-04-04T16:53:26.698Z,1.98
2023-04-04T16:55:55.122Z,1.92
2023-04-04T16:58:25.034Z,1.92
2023-04-04T17:00:53.737Z,2.05
2023-04-04T17:03:22.119Z,1.85
2023-04-04T17:05:50.481Z,1.80
2023-04-04T17:08:18.843Z,2.05
2023-04-04T17:10:47.123Z,1.92
2023-04-04T17:13:15.441Z,2.60
2023-04-04T17:15:46.917Z,2.08
2023-04-04T17:18:15.419Z,2.00
2023-04-04T17:20:43.853Z,2.35
2023-04-04T17:23:12.316Z,2.15
2023-04-04T17:25:40.746Z,1.63
2023-04-04T17:28:09.127Z,1.85
2023-04-04T17:30:37.882Z,2.40
2023-04-04T17:33:08.150Z,2.50
2023-04-04T17:35:36.829Z,1.92
2023-04-04T17:38:05.207Z,2.60
2023-04-04T17:40:36.360Z,2.13
2023-04-04T17:43:04.738Z,2.35
2023-04-04T17:45:33.165Z,2.30
2023-04-04T17:48:01.561Z,1.67
2023-04-04T17:50:31.504Z,2.63
2023-04-04T17:53:01.638Z,2.75
2023-04-04T17:55:30.479Z,2.60
2023-04-04T17:57:58.847Z,3.33
2023-04-04T18:00:27.311Z,2.10
2023-04-04T18:02:56.345Z,2.80
2023-04-04T18:05:25.413Z,3.40
2023-04-04T18:07:56.052Z,2.70
2023-04-04T18:10:24.718Z,3.70
2023-04-04T18:12:53.311Z,3.05
2023-04-04T18:15:21.906Z,2.95
2023-04-04T18:17:50.649Z,2.78
2023-04-04T18:20:31.688Z,2.90
2023-04-04T18:23:05.185Z,3.58
2023-04-04T18:25:33.859Z,4.22
2023-04-04T18:28:03.208Z,4.70
2023-04-04T18:30:35.064Z,4.35
2023-04-04T18:33:04.227Z,4.60
2023-04-04T18:35:32.761Z,4.35
2023-04-04T18:38:01.277Z,4.35
2023-04-04T18:40:31.211Z,5.07
2023-04-04T18:42:59.612Z,5.10
2023-04-04T18:45:37.433Z,5.20
2023-04-04T18:48:09.555Z,5.95
2023-04-04T18:50:38.012Z,5.57
2023-04-04T18:53:06.502Z,5.90
2023-04-04T18:55:36.384Z,6.20
2023-04-04T18:58:04.727Z,7.57
2023-04-04T19:00:33.506Z,6.72
2023-04-04T19:03:01.892Z,6.68
2023-04-04T19:05:34.196Z,6.88
2023-04-04T19:08:04.391Z,8.60
2023-04-04T19:10:33.511Z,6.90
2023-04-04T19:13:03.540Z,7.55
2023-04-04T19:15:31.960Z,7.20
2023-04-04T19:18:00.466Z,7.57
2023-04-04T19:20:29.049Z,7.97
2023-04-04T19:22:57.337Z,7.60
2023-04-04T19:25:26.578Z,7.47
2023-04-04T19:27:55.054Z,7.63
2023-04-04T19:30:43.053Z,7.85
2023-04-04T19:33:12.565Z,8.93
2023-04-04T19:35:53.838Z,8.13
2023-04-04T19:38:25.256Z,8.25
2023-04-04T19:40:56.407Z,8.35
2023-04-04T19:43:24.945Z,8.45
2023-04-04T19:45:57.216Z,7.93
2023-04-04T19:48:48.619Z,8.82
2023-04-04T19:51:39.365Z,8.55
2023-04-04T19:54:12.053Z,9.10
2023-04-04T19:56:40.768Z,8.63
2023-04-04T19:59:12.291Z,9.18
2023-04-04T20:01:47.497Z,8.27
2023-04-04T20:04:26.597Z,9.25
2023-04-04T20:06:55.590Z,10.57
2023-04-04T20:09:38.442Z,9.70
2023-04-04T20:12:09.519Z,10.70
2023-04-04T20:14:38.061Z,10.70
2023-04-04T20:17:09.759Z,9.98
2023-04-04T20:19:38.302Z,10.43
2023-04-04T20:22:07.132Z,11.13
2023-04-04T20:24:36.009Z,10.98
2023-04-04T20:27:05.050Z,11.05
2023-04-04T20:29:34.755Z,12.38
2023-04-04T20:32:04.380Z,12.45
2023-04-04T20:34:39.106Z,12.95
2023-04-04T20:37:11.986Z,12.02
2023-04-04T20:39:43.982Z,12.45
2023-04-04T20:42:19.876Z,12.68
2023-04-04T20:44:48.606Z,13.40
2023-04-04T20:47:42.739Z,13.32
2023-04-04T20:50:45.214Z,13.65
2023-04-04T20:53:21.205Z,12.43
2023-04-04T20:55:50.695Z,14.02
2023-04-04T20:58:30.668Z,13.65
2023-04-04T21:01:02.629Z,14.25
2023-04-04T21:03:33.650Z,13.40
2023-04-04T21:06:13.017Z,15.23
2023-04-04T21:08:47.048Z,14.50
2023-04-04T21:11:29.085Z,15.20
2023-04-04T21:13:58.715Z,14.80
2023-04-04T21:16:29.791Z,15.32
2023-04-04T21:18:59.175Z,16.33
2023-04-04T21:21:29.673Z,16.75
2023-04-04T21:23:58.819Z,16.85
2023-04-04T21:26:29.828Z,17.63
2023-04-04T21:28:59.760Z,18.33
2023-04-04T21:31:34.549Z,18.75
2023-04-04T21:34:12.548Z,18.67
2023-04-04T21:36:42.677Z,19.45
2023-04-04T21:39:14.943Z,19.85
2023-04-04T21:41:45.098Z,20.33
2023-04-04T21:44:13.384Z,21.65
2023-04-04T21:46:43.243Z,22.67
2023-04-04T21:49:12.056Z,23.65
2023-04-04T21:51:42.417Z,22.92
2023-04-04T21:54:11.246Z,25.20
2023-04-04T21:56:39.664Z,25.52
2023-04-04T21:59:09.631Z,25.77
2023-04-04T22:01:38.554Z,28.10
2023-04-04T22:04:07.071Z,26.73
2023-04-04T22:06:36.403Z,27.00
2023-04-04T22:09:06.631Z,30.33
2023-04-04T22:11:38.960Z,33.38
2023-04-04T22:14:08.129Z,31.65
2023-04-04T22:16:43.160Z,32.72
2023-04-04T22:19:12.060Z,33.35
2023-04-04T22:21:48.183Z,34.65
2023-04-04T22:24:20.634Z,37.83
2023-04-04T22:26:50.736Z,38.22
2023-04-04T22:29:22.220Z,39.88
2023-04-04T22:31:50.767Z,41.83
2023-04-04T22:34:19.098Z,41.65
2023-04-04T22:36:47.438Z,47.75
2023-04-04T22:39:20.669Z,49.58
2023-04-04T22:41:49.176Z,47.75
2023-04-04T22:44:17.902Z,48.28
2023-04-04T22:46:46.888Z,54.70
2023-04-04T22:49:16.238Z,59.88
2023-04-04T22:51:45.147Z,61.88
2023-04-04T22:54:15.551Z,63.15
2023-04-04T22:56:45.484Z,68.10
2023-04-04T22:59:14.185Z,74.32
2023-04-04T23:01:42.753Z,74.57
2023-04-04T23:04:11.331Z,79.05
2023-04-04T23:06:39.796Z,81.72
2023-04-04T23:09:08.788Z,83.13
2023-04-04T23:11:37.737Z,86.03
2023-04-04T23:14:09.599Z,84.65
2023-04-04T23:16:40.159Z,86.60
2023-04-04T23:19:08.572Z,83.70
2023-04-04T23:21:38.008Z,83.93
2023-04-04T23:24:07.765Z,82.82
2023-04-04T23:26:37.466Z,90.05
2023-04-04T23:29:07.586Z,85.22
2023-04-04T23:31:36.519Z,91.68
2023-04-04T23:34:05.053Z,91.63
2023-04-04T23:36:33.422Z,100.27
2023-04-04T23:39:01.923Z,104.63
2023-04-04T23:41:30.304Z,100.40
2023-04-04T23:43:59.685Z,105.73
2023-04-04T23:46:30.536Z,109.05
2023-04-04T23:48:58.856Z,113.53
2023-04-04T23:51:38.090Z,111.63
2023-04-04T23:54:06.817Z,119.93
2023-04-04T23:56:35.641Z,122.57
2023-04-04T23:59:04.266Z,123.67
